createdAt,value
2023-05-22T00:02:19.011Z,35.75
2023-05-22T00:04:46.798Z,44.70
2023-05-22T00:07:13.384Z,40.90
2023-05-22T00:09:40.014Z,42.58
2023-05-22T00:12:07.173Z,39.55
2023-05-22T00:14:33.734Z,35.85
2023-05-22T00:17:00.327Z,38.63
2023-05-22T00:19:30.461Z,35.63
2023-05-22T00:21:57.201Z,35.35
2023-05-22T00:24:24.408Z,35.22
2023-05-22T00:26:50.920Z,38.10
2023-05-22T00:29:17.463Z,32.35
2023-05-22T00:31:45.188Z,39.65
2023-05-22T00:34:11.964Z,34.25
2023-05-22T00:36:38.548Z,31.52
2023-05-22T00:39:05.182Z,37.88
2023-05-22T00:41:34.029Z,39.42
2023-05-22T00:44:00.771Z,43.42
2023-05-22T00:46:27.410Z,39.22
2023-05-22T00:48:54.017Z,40.30
2023-05-22T00:51:21.902Z,38.88
2023-05-22T00:53:49.677Z,43.10
2023-05-22T00:56:17.272Z,46.33
2023-05-22T00:58:44.255Z,47.72
2023-05-22T01:01:11.617Z,41.50
2023-05-22T01:03:44.875Z,44.55
2023-05-22T01:06:13.268Z,42.00
2023-05-22T01:08:41.482Z,42.40
2023-05-22T01:11:16.275Z,47.33
2023-05-22T01:14:17.809Z,47.10
2023-05-22T01:17:12.424Z,43.20
2023-05-22T01:20:01.572Z,38.50
2023-05-22T01:22:58.301Z,39.70
2023-05-22T01:26:02.861Z,35.97
2023-05-22T01:28:47.571Z,39.05
2023-05-22T01:31:19.240Z,39.47
2023-05-22T01:33:51.506Z,45.85
2023-05-22T01:36:22.528Z,50.00
2023-05-22T01:38:51.349Z,48.38
2023-05-22T01:41:18.793Z,48.38
2023-05-22T01:43:46.589Z,48.83
2023-05-22T01:46:13.554Z,48.22
2023-05-22T01:48:40.118Z,51.38
2023-05-22T01:51:19.306Z,51.03
2023-05-22T01:54:09.424Z,48.85
2023-05-22T01:56:46.602Z,48.45
2023-05-22T01:59:34.657Z,47.75
2023-05-22T02:02:06.101Z,50.63
2023-05-22T02:04:36.665Z,43.45
2023-05-22T02:07:04.043Z,50.40
2023-05-22T02:09:31.285Z,49.10
2023-05-22T02:12:00.507Z,49.05
2023-05-22T02:14:29.111Z,50.45
2023-05-22T02:16:56.785Z,50.55
2023-05-22T02:19:23.647Z,52.85
2023-05-22T02:21:50.460Z,46.30
2023-05-22T02:24:19.170Z,52.58
2023-05-22T02:26:45.804Z,46.75
2023-05-22T02:29:13.356Z,52.65
2023-05-22T02:31:40.018Z,52.22
2023-05-22T02:34:06.878Z,50.10
2023-05-22T02:36:33.732Z,55.38
2023-05-22T02:39:00.496Z,57.58
2023-05-22T02:41:27.091Z,54.60
2023-05-22T02:43:53.832Z,55.72
2023-05-22T02:46:20.820Z,56.13
2023-05-22T02:48:47.482Z,59.67
2023-05-22T02:51:14.098Z,58.00
2023-05-22T02:53:41.503Z,65.90
2023-05-22T02:56:11.317Z,62.95
2023-05-22T02:58:38.863Z,64.43
2023-05-22T03:01:09.243Z,65.32
2023-05-22T03:03:36.439Z,61.03
2023-05-22T03:06:04.229Z,69.32
2023-05-22T03:08:31.737Z,71.13
2023-05-22T03:10:59.974Z,69.47
2023-05-22T03:13:27.101Z,70.90
2023-05-22T03:16:00.767Z,67.72
2023-05-22T03:18:34.042Z,80.72
2023-05-22T03:21:00.643Z,69.82
2023-05-22T03:23:27.199Z,78.43
2023-05-22T03:25:53.774Z,73.30
2023-05-22T03:28:21.185Z,81.30
2023-05-22T03:30:47.881Z,152.85
2023-05-22T03:33:14.486Z,112.38
2023-05-22T03:35:43.372Z,540.13
2023-05-22T03:38:16.621Z,268.52
2023-05-22T03:40:43.123Z,305.10
2023-05-22T03:43:10.042Z,410.83
2023-05-22T03:45:36.764Z,210.88
2023-05-22T03:48:03.582Z,489.73
2023-05-22T03:50:30.288Z,379.90
2023-05-22T03:52:57.120Z,404.42
2023-05-22T03:55:24.373Z,436.00
2023-05-22T03:57:50.945Z,446.25
2023-05-22T04:00:19.598Z,493.67
2023-05-22T04:02:46.702Z,457.05
2023-05-22T04:05:13.350Z,406.77
2023-05-22T04:07:40.155Z,401.05
2023-05-22T04:10:07.196Z,379.25
2023-05-22T04:12:34.234Z,326.08
2023-05-22T04:15:00.867Z,407.92
2023-05-22T04:17:33.974Z,426.55
2023-05-22T04:20:00.662Z,299.83
2023-05-22T04:22:27.646Z,385.67
2023-05-22T04:24:55.849Z,554.75
2023-05-22T04:27:23.612Z,415.35
2023-05-22T04:29:53.536Z,510.75
2023-05-22T04:32:21.825Z,253.98
2023-05-22T04:34:52.403Z,305.15
2023-05-22T04:37:20.309Z,246.77
2023-05-22T04:39:47.395Z,283.55
2023-05-22T04:42:14.560Z,256.75
2023-05-22T04:44:41.881Z,271.80
2023-05-22T04:47:11.625Z,394.50
2023-05-22T04:49:39.279Z,291.13
2023-05-22T04:52:07.166Z,435.30
2023-05-22T04:54:34.490Z,304.10
2023-05-22T04:57:03.076Z,513.58
2023-05-22T04:59:29.634Z,396.77
2023-05-22T05:01:56.147Z,329.00
2023-05-22T05:04:23.778Z,352.80
2023-05-22T05:06:52.802Z,384.70
2023-05-22T05:09:19.371Z,238.38
2023-05-22T05:11:46.134Z,507.92
2023-05-22T05:14:12.741Z,429.70
2023-05-22T05:16:39.270Z,402.10
2023-05-22T05:19:05.913Z,387.85
2023-05-22T05:21:35.936Z,292.05
2023-05-22T05:24:02.611Z,228.98
2023-05-22T05:26:29.134Z,254.70
2023-05-22T05:28:56.741Z,253.35
2023-05-22T05:31:23.445Z,277.52
2023-05-22T05:33:50.453Z,295.17
2023-05-22T05:36:17.080Z,215.85
2023-05-22T05:38:43.672Z,155.73
2023-05-22T05:41:10.536Z,361.65
2023-05-22T05:43:37.201Z,226.18
2023-05-22T05:46:03.991Z,281.67
2023-05-22T05:48:30.649Z,486.95
2023-05-22T05:50:57.233Z,166.57
2023-05-22T05:53:23.759Z,287.05
2023-05-22T05:55:50.451Z,115.15
2023-05-22T05:58:17.154Z,255.85
2023-05-22T06:00:43.699Z,329.00
2023-05-22T06:03:10.550Z,460.90
2023-05-22T06:05:37.903Z,322.75
2023-05-22T06:08:06.149Z,493.85
2023-05-22T06:10:32.724Z,395.98
2023-05-22T06:12:59.254Z,215.13
2023-05-22T06:15:25.818Z,380.35
2023-05-22T06:17:52.356Z,199.75
2023-05-22T06:20:19.126Z,166.70
2023-05-22T06:22:46.676Z,491.95
2023-05-22T06:25:13.447Z,126.20
2023-05-22T06:27:40.097Z,93.90
2023-05-22T06:30:07.512Z,121.45
2023-05-22T06:32:37.352Z,142.75
2023-05-22T06:35:04.210Z,230.70
2023-05-22T06:37:33.017Z,152.98
2023-05-22T06:39:59.578Z,60.85
2023-05-22T06:42:26.195Z,105.93
2023-05-22T06:44:52.859Z,145.50
2023-05-22T06:47:19.474Z,77.47
2023-05-22T06:49:46.086Z,87.90
2023-05-22T06:52:13.870Z,84.28
2023-05-22T06:54:43.004Z,159.30
2023-05-22T06:57:10.233Z,103.38
2023-05-22T06:59:36.822Z,94.07
2023-05-22T07:02:05.858Z,69.15
2023-05-22T07:04:32.444Z,89.18
2023-05-22T07:06:58.962Z,66.80
2023-05-22T07:09:26.134Z,66.30
2023-05-22T07:11:52.725Z,130.38
2023-05-22T07:14:19.268Z,190.90
2023-05-22T07:16:45.989Z,56.97
2023-05-22T07:19:12.687Z,64.00
2023-05-22T07:21:39.799Z,81.15
2023-05-22T07:24:09.570Z,60.75
2023-05-22T07:26:37.425Z,87.82
2023-05-22T07:29:04.745Z,73.78
2023-05-22T07:31:32.114Z,63.78
2023-05-22T07:33:58.776Z,71.85
2023-05-22T07:36:25.764Z,66.35
2023-05-22T07:38:52.506Z,77.25
2023-05-22T07:41:19.061Z,66.82
2023-05-22T07:43:46.500Z,63.15
2023-05-22T07:46:13.366Z,59.60
2023-05-22T07:48:39.962Z,60.13
2023-05-22T07:51:07.829Z,58.00
2023-05-22T07:53:35.485Z,53.63
2023-05-22T07:56:02.014Z,52.90
2023-05-22T07:58:28.562Z,54.35
2023-05-22T08:00:55.886Z,51.97
2023-05-22T08:03:24.271Z,49.65
2023-05-22T08:05:51.200Z,46.42
2023-05-22T08:08:18.411Z,45.35
2023-05-22T08:11:01.889Z,47.95
2023-05-22T08:13:29.429Z,40.20
2023-05-22T08:16:04.113Z,43.50
2023-05-22T08:18:30.791Z,40.75
2023-05-22T08:20:57.550Z,44.22
2023-05-22T08:23:25.319Z,42.03
2023-05-22T08:25:51.919Z,43.83
2023-05-22T08:28:18.413Z,42.10
2023-05-22T08:30:45.160Z,41.58
2023-05-22T08:33:12.189Z,38.85
2023-05-22T08:35:39.246Z,42.67
2023-05-22T08:38:05.886Z,40.58
2023-05-22T08:40:38.590Z,38.60
2023-05-22T08:43:06.553Z,38.13
2023-05-22T08:46:02.588Z,39.50
2023-05-22T08:48:31.911Z,36.92
2023-05-22T08:51:07.927Z,35.33
2023-05-22T08:53:37.068Z,38.17
2023-05-22T09:12:06.745Z,33.35
2023-05-22T09:18:46.459Z,33.75
2023-05-22T10:13:51.481Z,28.60
2023-05-22T10:16:19.890Z,25.77
2023-05-22T10:18:49.038Z,24.90
2023-05-22T10:21:17.529Z,26.42
2023-05-22T10:23:50.524Z,26.02
2023-05-22T10:26:17.805Z,26.10
2023-05-22T10:28:50.892Z,23.15
2023-05-22T10:32:00.270Z,23.00
2023-05-22T10:34:49.610Z,24.85
2023-05-22T10:37:24.523Z,27.25
2023-05-22T10:39:58.434Z,29.10
2023-05-22T10:42:29.861Z,27.23
2023-05-22T10:44:56.515Z,29.40
2023-05-22T10:47:23.161Z,26.98
2023-05-22T10:49:51.213Z,28.20
2023-05-22T10:52:21.822Z,25.92
2023-05-22T10:54:54.010Z,25.42
2023-05-22T10:57:24.333Z,26.77
2023-05-22T10:59:51.348Z,24.98
2023-05-22T11:02:31.722Z,25.95
2023-05-22T11:05:17.119Z,26.77
2023-05-22T11:07:43.653Z,24.85
2023-05-22T11:10:10.727Z,26.60
2023-05-22T11:12:37.500Z,28.55
2023-05-22T11:15:11.128Z,27.73
2023-05-22T11:17:50.220Z,24.55
2023-05-22T11:20:24.765Z,26.73
2023-05-22T11:23:20.950Z,27.00
2023-05-22T11:25:47.500Z,27.38
2023-05-22T11:28:14.109Z,28.83
2023-05-22T11:30:41.642Z,27.02
2023-05-22T11:33:08.890Z,26.48
2023-05-22T11:35:35.844Z,26.63
2023-05-22T11:38:05.094Z,27.05
2023-05-22T11:40:31.766Z,27.30
2023-05-22T11:42:58.680Z,25.30
2023-05-22T11:45:26.030Z,25.40
2023-05-22T11:47:52.702Z,24.42
2023-05-22T11:50:33.506Z,27.20
2023-05-22T11:53:06.083Z,23.85
2023-05-22T11:55:33.423Z,23.50
2023-05-22T11:58:02.046Z,24.33
2023-05-22T12:00:29.404Z,24.67
2023-05-22T12:02:56.322Z,26.05
2023-05-22T12:05:23.036Z,24.48
2023-05-22T12:07:49.906Z,25.95
2023-05-22T12:10:16.731Z,24.65
2023-05-22T12:12:44.111Z,25.52
2023-05-22T12:15:10.922Z,26.35
2023-05-22T12:17:38.522Z,24.67
2023-05-22T12:20:07.150Z,23.58
2023-05-22T12:22:33.748Z,24.45
2023-05-22T12:25:13.976Z,25.45
2023-05-22T12:27:40.621Z,27.35
2023-05-22T12:30:12.518Z,27.08
2023-05-22T12:32:40.251Z,27.48
2023-05-22T12:35:07.614Z,24.65
2023-05-22T12:37:34.602Z,29.48
2023-05-22T12:40:04.201Z,30.08
2023-05-22T12:42:31.186Z,27.55
2023-05-22T12:44:58.245Z,27.70
2023-05-22T12:47:25.375Z,27.73
2023-05-22T12:49:52.265Z,29.48
2023-05-22T12:52:19.308Z,29.05
2023-05-22T12:54:46.554Z,28.73
2023-05-22T12:57:13.416Z,29.88
2023-05-22T12:59:40.022Z,28.95
2023-05-22T13:02:07.023Z,26.45
2023-05-22T13:04:33.799Z,26.75
2023-05-22T13:07:00.713Z,31.80
2023-05-22T13:09:27.439Z,28.70
2023-05-22T13:11:54.157Z,29.88
2023-05-22T13:14:21.438Z,28.30
2023-05-22T13:16:48.047Z,30.15
2023-05-22T13:19:14.704Z,30.67
2023-05-22T13:21:42.013Z,28.98
2023-05-22T13:24:08.495Z,29.23
2023-05-22T13:26:35.032Z,29.50
2023-05-22T13:29:01.555Z,35.97
2023-05-22T13:31:28.235Z,28.42
2023-05-22T13:33:54.947Z,31.02
2023-05-22T13:36:21.858Z,27.55
2023-05-22T13:38:48.482Z,26.80
2023-05-22T13:41:15.667Z,29.02
2023-05-22T13:43:42.584Z,30.25
2023-05-22T13:46:10.363Z,31.77
2023-05-22T13:48:37.014Z,32.63
2023-05-22T13:51:03.603Z,32.53
2023-05-22T13:53:32.318Z,30.70
2023-05-22T13:55:58.947Z,32.38
2023-05-22T13:58:25.826Z,34.33
2023-05-22T14:00:58.283Z,30.73
2023-05-22T14:03:24.967Z,32.58
2023-05-22T14:05:51.708Z,33.08
2023-05-22T14:08:18.298Z,31.75
2023-05-22T14:10:44.915Z,28.42
2023-05-22T14:13:11.524Z,28.75
2023-05-22T14:15:38.356Z,28.75
2023-05-22T14:18:09.264Z,31.90
2023-05-22T14:20:36.006Z,33.13
2023-05-22T14:23:02.984Z,33.25
2023-05-22T14:25:30.850Z,34.33
2023-05-22T14:27:59.658Z,32.97
2023-05-22T14:30:26.341Z,32.45
2023-05-22T14:32:53.005Z,38.75
2023-05-22T14:35:19.691Z,37.85
2023-05-22T14:37:47.395Z,36.38
2023-05-22T14:40:14.154Z,35.22
2023-05-22T14:42:40.939Z,38.10
2023-05-22T14:45:08.260Z,34.63
2023-05-22T14:47:35.212Z,41.78
2023-05-22T14:50:14.660Z,34.42
2023-05-22T14:52:46.380Z,36.38
2023-05-22T14:55:14.160Z,35.03
2023-05-22T14:57:40.884Z,38.05
2023-05-22T15:00:12.469Z,39.72
2023-05-22T15:02:39.772Z,36.10
2023-05-22T15:05:07.212Z,37.67
2023-05-22T15:10:04.996Z,34.22
2023-05-22T15:12:31.587Z,34.30
2023-05-22T15:14:58.119Z,34.22
2023-05-22T15:17:24.728Z,34.28
2023-05-22T15:19:51.430Z,33.85
2023-05-22T15:22:19.857Z,34.20
2023-05-22T15:25:04.568Z,36.28
2023-05-22T15:27:31.755Z,36.35
2023-05-22T15:29:58.408Z,39.03
2023-05-22T15:32:24.966Z,38.10
2023-05-22T15:34:52.413Z,36.03
2023-05-22T15:37:19.123Z,35.47
2023-05-22T15:39:45.770Z,37.10
2023-05-22T15:42:13.075Z,36.17
2023-05-22T15:44:39.773Z,35.33
2023-05-22T15:47:06.483Z,35.13
2023-05-22T15:49:33.316Z,36.72
2023-05-22T15:52:00.097Z,36.58
2023-05-22T15:54:26.747Z,38.08
2023-05-22T15:56:53.341Z,34.05
2023-05-22T15:59:19.865Z,41.28
2023-05-22T16:01:46.710Z,38.97
2023-05-22T16:04:13.422Z,37.88
2023-05-22T16:06:41.207Z,37.85
2023-05-22T16:09:09.994Z,40.17
2023-05-22T16:11:38.765Z,41.13
2023-05-22T16:14:05.453Z,38.40
2023-05-22T16:16:32.218Z,40.92
2023-05-22T16:18:58.983Z,41.47
2023-05-22T16:21:25.652Z,40.15
2023-05-22T16:23:52.731Z,38.88
2023-05-22T16:26:19.390Z,37.33
2023-05-22T16:28:46.092Z,41.50
2023-05-22T16:31:13.931Z,39.42
2023-05-22T16:33:40.491Z,42.22
2023-05-22T16:36:07.488Z,41.38
2023-05-22T16:38:35.275Z,40.72
2023-05-22T16:41:01.841Z,39.90
2023-05-22T16:43:28.625Z,41.33
2023-05-22T16:45:55.314Z,41.75
2023-05-22T16:48:21.967Z,39.13
2023-05-22T16:50:48.699Z,43.63
2023-05-22T16:53:18.408Z,42.63
2023-05-22T16:55:45.569Z,44.38
2023-05-22T16:58:14.021Z,42.50
2023-05-22T17:00:41.338Z,41.17
2023-05-22T17:03:08.564Z,41.25
2023-05-22T17:05:36.144Z,41.97
2023-05-22T17:08:03.254Z,38.00
2023-05-22T17:10:30.038Z,41.33
2023-05-22T17:12:57.622Z,42.00
2023-05-22T17:15:25.500Z,39.65
2023-05-22T17:17:53.686Z,43.08
2023-05-22T17:20:23.084Z,43.88
2023-05-22T17:22:53.846Z,39.60
2023-05-22T17:25:21.356Z,39.63
2023-05-22T17:27:48.182Z,43.53
2023-05-22T17:30:15.226Z,44.45
2023-05-22T17:32:42.051Z,43.33
2023-05-22T17:35:09.928Z,43.03
2023-05-22T17:37:36.561Z,44.95
2023-05-22T17:40:04.092Z,39.95
2023-05-22T17:42:32.182Z,44.05
2023-05-22T17:44:58.898Z,47.30
2023-05-22T17:47:25.648Z,49.15
2023-05-22T17:49:52.299Z,40.90
2023-05-22T17:52:18.952Z,43.05
2023-05-22T17:54:45.602Z,46.17
2023-05-22T17:57:12.133Z,43.83
2023-05-22T17:59:40.479Z,45.97
2023-05-22T18:02:08.609Z,45.47
2023-05-22T18:04:36.364Z,49.08
2023-05-22T18:07:02.886Z,46.95
2023-05-22T18:09:29.476Z,51.55
2023-05-22T18:11:56.067Z,47.45
2023-05-22T18:14:22.625Z,44.83
2023-05-22T18:16:49.362Z,43.17
2023-05-22T18:19:17.305Z,46.08
2023-05-22T18:21:44.091Z,45.83
2023-05-22T18:24:10.992Z,43.80
2023-05-22T18:26:37.533Z,48.05
2023-05-22T18:29:04.162Z,48.85
2023-05-22T18:31:30.939Z,49.25
2023-05-22T18:33:57.570Z,48.35
2023-05-22T18:36:24.485Z,46.97
2023-05-22T18:38:51.189Z,48.80
2023-05-22T18:41:17.795Z,50.88
2023-05-22T18:43:44.405Z,47.67
2023-05-22T18:46:11.028Z,45.63
2023-05-22T18:48:37.697Z,50.78
2023-05-22T18:51:04.245Z,53.42
2023-05-22T18:53:31.493Z,51.30
2023-05-22T18:55:58.217Z,56.28
2023-05-22T18:58:24.893Z,56.58
2023-05-22T19:00:54.203Z,57.13
2023-05-22T19:03:20.771Z,64.20
2023-05-22T19:05:47.377Z,58.08
2023-05-22T19:08:13.944Z,58.28
2023-05-22T19:10:40.687Z,61.10
2023-05-22T19:13:07.680Z,59.70
2023-05-22T19:18:24.658Z,63.67
2023-05-22T19:20:51.216Z,66.78
2023-05-22T19:23:18.469Z,64.57
2023-05-22T19:25:45.499Z,67.03
2023-05-22T19:28:12.073Z,67.72
2023-05-22T19:30:38.917Z,71.10
2023-05-22T19:33:08.592Z,63.38
2023-05-22T19:35:35.535Z,66.30
2023-05-22T19:38:02.178Z,67.30
2023-05-22T19:40:28.974Z,68.40
2023-05-22T19:42:55.742Z,72.60
2023-05-22T19:45:22.322Z,72.57
2023-05-22T19:47:49.113Z,74.53
2023-05-22T19:50:16.037Z,78.68
2023-05-22T19:52:42.586Z,63.47
2023-05-22T19:55:12.661Z,71.80
2023-05-22T19:57:39.307Z,68.93
2023-05-22T20:00:11.085Z,72.68
2023-05-22T20:02:38.420Z,69.30
2023-05-22T20:05:09.402Z,68.63
2023-05-22T20:07:36.450Z,68.93
2023-05-22T20:10:06.569Z,70.28
2023-05-22T20:12:33.656Z,75.32
2023-05-22T20:15:00.346Z,73.13
2023-05-22T20:17:27.021Z,71.57
2023-05-22T20:19:54.116Z,77.72
2023-05-22T20:22:20.866Z,74.78
2023-05-22T20:24:48.246Z,77.32
2023-05-22T20:27:14.862Z,77.28
2023-05-22T20:29:41.516Z,83.20
2023-05-22T20:32:08.840Z,83.55
2023-05-22T20:34:35.385Z,83.70
2023-05-22T20:37:07.813Z,83.32
2023-05-22T20:39:37.494Z,85.63
2023-05-22T20:42:06.622Z,89.93
2023-05-22T20:44:35.274Z,76.20
2023-05-22T20:47:02.698Z,85.05
2023-05-22T20:49:29.950Z,85.88
2023-05-22T20:52:00.002Z,74.85
2023-05-22T20:54:27.299Z,80.32
2023-05-22T20:56:55.136Z,88.78
2023-05-22T20:59:22.521Z,79.85
2023-05-22T21:01:49.100Z,84.38
2023-05-22T21:04:15.808Z,77.13
2023-05-22T21:06:42.509Z,68.07
2023-05-22T21:09:09.062Z,93.43
2023-05-22T21:11:35.624Z,80.78
2023-05-22T21:14:02.421Z,82.43
2023-05-22T21:16:28.987Z,88.18
2023-05-22T21:18:55.648Z,74.95
2023-05-22T21:21:22.177Z,86.50
2023-05-22T21:23:50.275Z,81.63
2023-05-22T21:26:17.142Z,89.65
2023-05-22T21:28:43.922Z,82.50
2023-05-22T21:31:10.807Z,89.43
2023-05-22T21:33:37.435Z,94.40
2023-05-22T21:36:07.270Z,92.55
2023-05-22T21:38:33.811Z,96.20
2023-05-22T21:41:00.608Z,93.72
2023-05-22T21:43:27.149Z,90.90
2023-05-22T21:45:53.691Z,94.38
2023-05-22T21:51:10.344Z,103.03
2023-05-22T21:53:36.959Z,96.90
2023-05-22T21:56:03.525Z,91.90
2023-05-22T21:58:30.032Z,107.72
2023-05-22T22:00:56.627Z,98.15
2023-05-22T22:03:23.419Z,103.05
2023-05-22T22:05:50.111Z,100.20
2023-05-22T22:08:16.826Z,96.72
2023-05-22T22:10:50.857Z,87.03
2023-05-22T22:13:17.552Z,94.20
2023-05-22T22:15:44.119Z,96.07
2023-05-22T22:18:14.966Z,99.18
2023-05-22T22:20:45.014Z,85.72
2023-05-22T22:23:12.570Z,99.15
2023-05-22T22:25:39.494Z,94.68
2023-05-22T22:28:11.583Z,95.03
2023-05-22T22:30:38.413Z,93.88
2023-05-22T22:33:05.063Z,99.05
2023-05-22T22:35:31.704Z,94.75
2023-05-22T22:37:58.558Z,94.97
2023-05-22T22:40:37.775Z,89.88
2023-05-22T22:43:04.454Z,87.80
2023-05-22T22:45:31.386Z,93.47
2023-05-22T22:47:57.972Z,94.80
2023-05-22T22:50:24.659Z,87.45
2023-05-22T22:52:51.355Z,84.38
2023-05-22T22:55:18.423Z,85.22
2023-05-22T22:57:49.823Z,79.57
2023-05-22T23:00:17.877Z,92.68
2023-05-22T23:02:44.541Z,94.30
2023-05-22T23:05:12.000Z,96.20
2023-05-22T23:07:38.742Z,90.25
2023-05-22T23:10:08.059Z,85.22
2023-05-22T23:12:36.250Z,91.43
2023-05-22T23:15:03.386Z,97.15
2023-05-22T23:17:30.250Z,93.93
2023-05-22T23:19:57.274Z,92.93
2023-05-22T23:22:23.905Z,90.68
2023-05-22T23:24:50.871Z,90.25
2023-05-22T23:27:17.693Z,88.25
2023-05-22T23:29:44.268Z,94.05
2023-05-22T23:32:12.988Z,90.07
2023-05-22T23:34:43.356Z,100.00
2023-05-22T23:37:10.146Z,101.80
2023-05-22T23:39:36.772Z,93.82
2023-05-22T23:42:03.673Z,99.15
2023-05-22T23:44:30.941Z,95.60
2023-05-22T23:46:57.825Z,99.65
2023-05-22T23:49:26.491Z,101.82
2023-05-22T23:51:53.227Z,107.93
2023-05-22T23:54:19.826Z,96.05
2023-05-22T23:56:46.508Z,94.93
2023-05-22T23:59:13.259Z,98.28
